Moritz — AEEC — position and weather

sailwx.info

Track history (hours):
 
Tides and Currents Weather Stations Pressure Air Temp Water Temp Dewpoint Dewpoint Depression Visibility Wind Speed Wind Dir Waves Ship Positions

Moritz

Last reported at 2018-Jan-19 19:24 UTC. Time now 2018-Jan-21 04:54 UTC.
Position N 40°41' W 074°04'.

Length 18 m.

Type: Ship. MMSI: 366999444.

Date/timePositionNaut miles runAvg speedWind from/ knotsBaromVisibWave heightAir tempDewpointWater temp
2018-Jan-19 19:24N 40°41' W 074°04'3 7.3
2018-Jan-19 19:00N 40°40' W 074°00'0 0.0
2018-Jan-19 16:26N 40°40' W 074°00'1 2.3
2018-Jan-19 16:00N 40°40' W 074°02'2 4.6
2018-Jan-19 15:30N 40°38' W 074°03'910.4
2018-Jan-19 14:37N 40°29' W 074°06'210.8
2018-Jan-19 14:25N 40°29' W 074°03'1 2.8
2018-Jan-19 13:59N 40°28' W 074°02'713.9
2018-Jan-19 13:30N 40°35' W 074°03'612.5
2018-Jan-19 13:00N 40°41' W 074°04'0 0.0
2018-Jan-18 19:42N 40°41' W 074°04'1 5.7
2018-Jan-18 19:30N 40°40' W 074°04'2 3.7
2018-Jan-18 19:00N 40°41' W 074°02'510.5
2018-Jan-18 18:30N 40°46' W 074°00'2 3.5
2018-Jan-18 18:00N 40°48' W 073°59'8 4.0
2018-Jan-18 16:00N 40°41' W 074°04'3 5.2
2018-Jan-18 15:25N 40°40' W 074°00'3 6.5
2018-Jan-18 15:00N 40°38' W 074°03'3 6.7
2018-Jan-18 14:29N 40°35' W 074°02'1 2.9
2018-Jan-18 14:00N 40°36' W 074°02'4 8.1
2018-Jan-18 13:29N 40°40' W 074°03'1 2.2
2018-Jan-18 12:59N 40°41' W 074°04'0 0.0
2018-Jan-18 12:30N 40°41' W 074°04'  
2018-Jan-12 14:59N 40°41' W 074°04'0 0.0
2018-Jan-12 14:28N 40°41' W 074°04'0 0.1
2018-Jan-12 14:00N 40°41' W 074°04'0 0.1
2018-Jan-12 13:30N 40°41' W 074°04'0 0.0
2018-Jan-12 13:00N 40°41' W 074°04'0 0.0
2018-Jan-11 19:07N 40°41' W 074°04'0 0.0
2018-Jan-11 18:47N 40°41' W 074°04'0 0.0
2018-Jan-11 18:17N 40°41' W 074°04'0 0.0
2018-Jan-11 18:00N 40°41' W 074°04'0 0.0
2018-Jan-11 17:30N 40°41' W 074°04'0 0.0
2018-Jan-11 17:00N 40°41' W 074°04'0 0.0
2018-Jan-11 16:29N 40°41' W 074°04'0 0.0
2018-Jan-11 16:00N 40°41' W 074°04'0 0.0
2018-Jan-10 19:50N 40°41' W 074°04'0 0.1
2018-Jan-10 19:30N 40°41' W 074°04'0 0.0
2018-Jan-10 19:00N 40°41' W 074°04'0 0.0
2018-Jan-10 18:30N 40°41' W 074°04'0 0.0
2018-Jan-10 17:59N 40°41' W 074°04'0 0.0
2018-Jan-10 17:30N 40°41' W 074°04'0 0.1
2018-Jan-10 17:00N 40°41' W 074°04'0 0.0
2018-Jan-10 16:30N 40°41' W 074°04'0 0.0
2018-Jan-10 16:00N 40°41' W 074°04'0 0.0
2018-Jan-10 15:30N 40°41' W 074°04'0 0.0
2018-Jan-10 15:00N 40°41' W 074°04'0 0.0
2018-Jan-10 14:30N 40°41' W 074°04'0 0.0
2018-Jan-10 14:00N 40°41' W 074°04'0 0.1
2018-Jan-10 13:30N 40°41' W 074°04'0 0.1
2018-Jan-10 13:00N 40°41' W 074°04'0 0.0
2018-Jan-09 20:41N 40°41' W 074°04'  
Track history (hours):
 
Tides and Currents Weather Stations Pressure Air Temp Water Temp Dewpoint Dewpoint Depression Visibility Wind Speed Wind Dir Waves Ship Positions

Moritz

Last reported at 2018-Jan-19 19:24 UTC. Time now 2018-Jan-21 04:54 UTC.
Position N 40°41' W 074°04'.

Length 18 m.

Type: Ship. MMSI: 366999444.

Date/timePositionNaut miles runAvg speedWind from/ knotsBaromVisibWave heightAir tempDewpointWater temp
2018-Jan-19 19:24N 40°41' W 074°04'3 7.3
2018-Jan-19 19:00N 40°40' W 074°00'0 0.0
2018-Jan-19 16:26N 40°40' W 074°00'1 2.3
2018-Jan-19 16:00N 40°40' W 074°02'2 4.6
2018-Jan-19 15:30N 40°38' W 074°03'910.4
2018-Jan-19 14:37N 40°29' W 074°06'210.8
2018-Jan-19 14:25N 40°29' W 074°03'1 2.8
2018-Jan-19 13:59N 40°28' W 074°02'713.9
2018-Jan-19 13:30N 40°35' W 074°03'612.5
2018-Jan-19 13:00N 40°41' W 074°04'0 0.0
2018-Jan-18 19:42N 40°41' W 074°04'1 5.7
2018-Jan-18 19:30N 40°40' W 074°04'2 3.7
2018-Jan-18 19:00N 40°41' W 074°02'510.5
2018-Jan-18 18:30N 40°46' W 074°00'2 3.5
2018-Jan-18 18:00N 40°48' W 073°59'8 4.0
2018-Jan-18 16:00N 40°41' W 074°04'3 5.2
2018-Jan-18 15:25N 40°40' W 074°00'3 6.5
2018-Jan-18 15:00N 40°38' W 074°03'3 6.7
2018-Jan-18 14:29N 40°35' W 074°02'1 2.9
2018-Jan-18 14:00N 40°36' W 074°02'4 8.1
2018-Jan-18 13:29N 40°40' W 074°03'1 2.2
2018-Jan-18 12:59N 40°41' W 074°04'0 0.0
2018-Jan-18 12:30N 40°41' W 074°04'  
2018-Jan-12 14:59N 40°41' W 074°04'0 0.0
2018-Jan-12 14:28N 40°41' W 074°04'0 0.1
2018-Jan-12 14:00N 40°41' W 074°04'0 0.1
2018-Jan-12 13:30N 40°41' W 074°04'0 0.0
2018-Jan-12 13:00N 40°41' W 074°04'0 0.0
2018-Jan-11 19:07N 40°41' W 074°04'0 0.0
2018-Jan-11 18:47N 40°41' W 074°04'0 0.0
2018-Jan-11 18:17N 40°41' W 074°04'0 0.0
2018-Jan-11 18:00N 40°41' W 074°04'0 0.0
2018-Jan-11 17:30N 40°41' W 074°04'0 0.0
2018-Jan-11 17:00N 40°41' W 074°04'0 0.0
2018-Jan-11 16:29N 40°41' W 074°04'0 0.0
2018-Jan-11 16:00N 40°41' W 074°04'0 0.0
2018-Jan-10 19:50N 40°41' W 074°04'0 0.1
2018-Jan-10 19:30N 40°41' W 074°04'0 0.0
2018-Jan-10 19:00N 40°41' W 074°04'0 0.0
2018-Jan-10 18:30N 40°41' W 074°04'0 0.0
2018-Jan-10 17:59N 40°41' W 074°04'0 0.0
2018-Jan-10 17:30N 40°41' W 074°04'0 0.1
2018-Jan-10 17:00N 40°41' W 074°04'0 0.0
2018-Jan-10 16:30N 40°41' W 074°04'0 0.0
2018-Jan-10 16:00N 40°41' W 074°04'0 0.0
2018-Jan-10 15:30N 40°41' W 074°04'0 0.0
2018-Jan-10 15:00N 40°41' W 074°04'0 0.0
2018-Jan-10 14:30N 40°41' W 074°04'0 0.0
2018-Jan-10 14:00N 40°41' W 074°04'0 0.1
2018-Jan-10 13:30N 40°41' W 074°04'0 0.1
2018-Jan-10 13:00N 40°41' W 074°04'0 0.0
2018-Jan-09 20:41N 40°41' W 074°04'  

Dump ship's entire track history